createdAt,value
2022-10-29T00:02:22.669Z,99084.25
2022-10-29T00:04:49.969Z,99079.53
2022-10-29T00:07:17.271Z,99080.88
2022-10-29T00:09:44.604Z,99076.41
2022-10-29T00:12:12.018Z,99075.13
2022-10-29T00:14:39.357Z,99072.19
2022-10-29T00:17:06.647Z,99063.38
2022-10-29T00:19:33.973Z,99060.09
2022-10-29T00:22:01.360Z,99069.09
2022-10-29T00:24:28.652Z,99067.63
2022-10-29T00:26:55.999Z,99069.22
2022-10-29T00:29:23.328Z,99063.06
2022-10-29T00:31:51.296Z,99063.34
2022-10-29T00:34:18.689Z,99049.78
2022-10-29T00:36:45.993Z,99055.28
2022-10-29T00:39:15.591Z,99060.16
2022-10-29T00:41:43.622Z,99066.31
2022-10-29T00:44:20.504Z,99068.59
2022-10-29T00:47:02.649Z,99069.72
2022-10-29T00:49:32.017Z,99074.84
2022-10-29T00:52:01.653Z,99079.34
2022-10-29T00:54:30.337Z,99072.66
2022-10-29T00:57:22.351Z,99066.31
2022-10-29T00:59:50.338Z,99061.91
2022-10-29T01:02:17.955Z,99053.91
2022-10-29T01:04:46.533Z,99055.06
2022-10-29T01:07:13.887Z,99062.94
2022-10-29T01:09:41.267Z,99051.97
2022-10-29T01:12:30.286Z,99055.47
2022-10-29T01:15:22.542Z,99059.72
2022-10-29T01:18:08.433Z,99049.63
2022-10-29T01:21:13.783Z,99057.19
2022-10-29T01:24:07.900Z,99054.81
2022-10-29T01:27:05.995Z,99051.06
2022-10-29T01:30:07.299Z,99044.97
2022-10-29T01:32:51.841Z,99040.13
2022-10-29T01:35:56.894Z,99037.53
2022-10-29T01:38:27.189Z,99033.09
2022-10-29T01:41:12.564Z,99032.13
2022-10-29T01:43:57.291Z,99033.84
2022-10-29T01:46:29.644Z,99021.59
2022-10-29T01:49:04.228Z,99022.34
2022-10-29T01:51:33.370Z,99021.50
2022-10-29T01:54:02.031Z,99019.78
2022-10-29T01:56:29.380Z,99015.47
2022-10-29T01:58:59.176Z,99016.31
2022-10-29T02:02:05.245Z,99022.28
2022-10-29T02:04:51.403Z,99014.03
2022-10-29T02:07:44.770Z,99025.81
2022-10-29T02:10:19.142Z,99015.03
2022-10-29T02:12:56.547Z,99012.47
2022-10-29T02:15:33.094Z,99015.63
2022-10-29T02:18:01.982Z,99012.28
2022-10-29T02:20:29.790Z,99012.66
2022-10-29T02:22:57.233Z,99009.81
2022-10-29T02:25:25.080Z,99008.00
2022-10-29T02:27:52.814Z,99010.72
2022-10-29T02:30:20.231Z,99009.84
2022-10-29T02:32:47.733Z,99016.69
2022-10-29T02:35:15.103Z,99004.91
2022-10-29T02:37:42.402Z,99001.31
2022-10-29T02:40:10.259Z,98999.09
2022-10-29T02:42:37.613Z,98990.50
2022-10-29T02:45:05.342Z,98985.69
2022-10-29T02:47:32.740Z,98986.03
2022-10-29T02:50:00.047Z,98991.13
2022-10-29T02:52:27.367Z,98995.03
2022-10-29T02:54:54.756Z,98992.69
2022-10-29T02:57:22.037Z,98986.44
2022-10-29T02:59:49.326Z,98988.88
2022-10-29T03:02:16.821Z,98993.97
2022-10-29T03:04:44.772Z,98997.88
2022-10-29T03:07:12.086Z,98992.47
2022-10-29T03:09:39.420Z,98984.16
2022-10-29T03:12:07.124Z,98980.13
2022-10-29T03:14:34.428Z,98979.78
2022-10-29T03:17:01.778Z,98990.13
2022-10-29T03:19:29.082Z,98985.41
2022-10-29T03:21:56.444Z,98990.84
2022-10-29T03:24:23.726Z,98987.81
2022-10-29T03:26:51.034Z,98997.03
2022-10-29T03:29:18.347Z,98988.22
2022-10-29T03:31:45.690Z,98993.44
2022-10-29T03:34:12.980Z,98999.19
2022-10-29T03:36:40.313Z,99006.88
2022-10-29T03:39:07.762Z,98994.88
2022-10-29T03:41:35.084Z,99000.94
2022-10-29T03:44:02.368Z,98999.13
2022-10-29T03:46:29.691Z,99004.66
2022-10-29T03:48:56.967Z,98997.31
2022-10-29T03:51:24.356Z,99002.34
2022-10-29T03:53:51.711Z,98994.34
2022-10-29T03:56:19.055Z,98992.53
2022-10-29T03:58:46.409Z,98997.41
2022-10-29T04:01:13.912Z,98996.19
2022-10-29T04:03:42.468Z,99000.53
2022-10-29T04:06:14.865Z,98991.53
2022-10-29T04:08:42.695Z,98995.34
2022-10-29T04:11:12.047Z,98993.47
2022-10-29T04:13:39.767Z,98990.38
2022-10-29T04:16:07.455Z,98981.31
2022-10-29T04:18:34.843Z,98985.25
2022-10-29T04:25:26.863Z,98985.09
2022-10-29T04:29:25.542Z,98980.88
2022-10-29T04:31:52.878Z,98973.28
2022-10-29T04:34:20.262Z,98984.44
2022-10-29T04:36:47.546Z,98982.97
2022-10-29T04:39:18.269Z,98984.91
2022-10-29T04:41:51.539Z,98987.13
2022-10-29T04:44:20.095Z,98984.78
2022-10-29T04:46:47.609Z,98983.22
2022-10-29T04:49:14.910Z,98984.72
2022-10-29T04:51:42.240Z,98988.41
2022-10-29T04:54:09.637Z,98989.31
2022-10-29T04:56:36.962Z,98980.13
2022-10-29T04:59:04.292Z,98983.53
2022-10-29T05:01:31.827Z,98989.97
2022-10-29T05:04:00.210Z,98992.38
2022-10-29T05:06:27.787Z,98990.81
2022-10-29T05:08:55.075Z,98984.44
2022-10-29T05:11:22.407Z,98998.00
2022-10-29T05:13:49.729Z,98991.66
2022-10-29T05:16:17.059Z,98989.00
2022-10-29T05:18:44.411Z,98984.94
2022-10-29T05:21:11.714Z,98978.84
2022-10-29T05:23:39.102Z,98976.09
2022-10-29T05:26:06.381Z,98972.97
2022-10-29T05:28:33.748Z,98971.78
2022-10-29T05:31:02.479Z,98976.69
2022-10-29T05:33:29.810Z,98985.75
2022-10-29T05:35:58.703Z,98983.69
2022-10-29T05:38:25.979Z,98986.75
2022-10-29T05:40:53.301Z,98985.50
2022-10-29T05:43:20.586Z,98988.34
2022-10-29T05:45:47.901Z,98996.31
2022-10-29T05:48:15.247Z,98995.50
2022-10-29T05:50:42.811Z,98993.66
2022-10-29T05:53:14.520Z,98995.75
2022-10-29T05:55:42.211Z,98989.19
2022-10-29T05:58:13.910Z,98990.03
2022-10-29T06:00:43.713Z,98995.06
2022-10-29T06:03:16.678Z,98997.69
2022-10-29T06:05:44.217Z,98993.09
2022-10-29T06:08:11.487Z,98993.94
2022-10-29T06:10:38.859Z,98994.88
2022-10-29T06:13:12.986Z,98988.56
2022-10-29T06:15:40.388Z,98990.03
2022-10-29T06:18:08.283Z,98985.47
2022-10-29T06:20:36.107Z,98988.88
2022-10-29T06:23:03.600Z,98987.94
2022-10-29T06:25:31.113Z,98986.88
2022-10-29T06:28:07.065Z,98988.47
2022-10-29T06:30:35.503Z,98982.56
2022-10-29T06:33:03.542Z,98982.34
2022-10-29T06:35:31.320Z,98982.44
2022-10-29T06:37:59.472Z,98986.13
2022-10-29T06:40:27.323Z,98982.66
2022-10-29T06:43:02.124Z,98989.84
2022-10-29T06:45:30.221Z,98992.91
2022-10-29T06:47:58.039Z,98994.41
2022-10-29T06:50:25.976Z,98991.44
2022-10-29T06:53:03.392Z,98983.53
2022-10-29T06:55:30.889Z,98988.22
2022-10-29T06:58:02.947Z,98987.84
2022-10-29T07:00:31.548Z,98986.75
2022-10-29T07:03:00.159Z,98981.13
2022-10-29T07:05:28.176Z,98979.13
2022-10-29T07:07:57.731Z,98983.53
2022-10-29T07:10:27.496Z,98983.16
2022-10-29T07:12:55.037Z,98973.94
2022-10-29T07:15:25.757Z,98980.06
2022-10-29T07:18:03.547Z,98980.00
2022-10-29T07:20:32.905Z,98978.88
2022-10-29T07:23:01.509Z,98982.25
2022-10-29T07:25:29.628Z,98986.69
2022-10-29T07:28:03.641Z,98979.22
2022-10-29T07:30:31.188Z,98983.44
2022-10-29T07:32:58.485Z,98984.53
2022-10-29T07:35:25.877Z,98990.28
2022-10-29T07:37:53.336Z,98992.31
2022-10-29T07:40:20.751Z,98993.09
2022-10-29T07:42:52.821Z,99000.88
2022-10-29T07:45:20.389Z,99002.91
2022-10-29T07:47:47.697Z,99014.19
2022-10-29T07:50:15.520Z,99016.00
2022-10-29T07:52:43.941Z,99022.81
2022-10-29T07:55:11.207Z,99020.53
2022-10-29T07:57:38.507Z,99025.88
2022-10-29T08:00:06.269Z,99032.50
2022-10-29T08:02:40.056Z,99031.25
2022-10-29T08:05:08.051Z,99032.41
2022-10-29T08:07:35.426Z,99034.72
2022-10-29T08:10:02.712Z,99030.69
2022-10-29T08:12:30.044Z,99037.06
2022-10-29T08:14:57.402Z,99031.56
2022-10-29T08:17:24.704Z,99037.75
2022-10-29T08:19:52.033Z,99037.06
2022-10-29T08:22:19.340Z,99036.69
2022-10-29T08:24:46.636Z,99038.69
2022-10-29T08:27:14.018Z,99031.06
2022-10-29T08:29:41.323Z,99029.34
2022-10-29T08:32:08.729Z,99026.66
2022-10-29T08:34:36.011Z,99021.19
2022-10-29T08:37:03.399Z,99015.84
2022-10-29T08:39:30.693Z,99023.66
2022-10-29T08:42:16.114Z,99021.22
2022-10-29T08:45:20.587Z,99014.75
2022-10-29T08:47:47.815Z,99019.56
2022-10-29T08:50:34.606Z,99015.72
2022-10-29T08:53:22.325Z,99017.63
2022-10-29T08:55:50.227Z,99017.06
2022-10-29T08:58:37.576Z,99015.69
2022-10-29T09:01:11.265Z,99012.78
2022-10-29T09:03:38.716Z,99006.06
2022-10-29T09:06:36.478Z,99012.25
2022-10-29T09:09:26.475Z,99011.88
2022-10-29T09:12:26.840Z,99010.72
2022-10-29T09:15:29.229Z,99015.19
2022-10-29T09:18:15.426Z,99017.16
2022-10-29T09:20:54.746Z,99019.75
2022-10-29T09:23:47.653Z,99013.97
2022-10-29T09:26:32.104Z,99009.34
2022-10-29T09:29:36.450Z,99006.63
2022-10-29T09:32:19.034Z,99004.28
2022-10-29T09:34:58.158Z,99003.69
2022-10-29T09:37:53.540Z,98997.00
2022-10-29T09:40:42.060Z,98997.56
2022-10-29T09:43:33.071Z,98997.88
2022-10-29T09:46:25.174Z,98990.00
2022-10-29T09:48:52.432Z,98993.09
2022-10-29T09:51:22.573Z,98987.50
2022-10-29T09:53:51.243Z,98982.97
2022-10-29T09:56:18.692Z,98986.28
2022-10-29T09:58:49.033Z,98984.22
2022-10-29T10:01:16.578Z,98979.84
2022-10-29T10:03:47.446Z,98981.56
2022-10-29T10:06:16.182Z,98971.06
2022-10-29T10:09:04.941Z,98978.03
2022-10-29T10:11:42.993Z,98977.00
2022-10-29T10:14:24.269Z,98972.53
2022-10-29T10:17:01.515Z,98970.66
2022-10-29T10:19:30.928Z,98963.34
2022-10-29T10:22:03.334Z,98958.22
2022-10-29T10:24:32.809Z,98950.19
2022-10-29T10:27:00.948Z,98946.69
2022-10-29T10:29:28.767Z,98947.16
2022-10-29T10:31:56.062Z,98946.34
2022-10-29T10:34:33.814Z,98940.00
2022-10-29T10:37:10.100Z,98952.28
2022-10-29T10:40:01.110Z,98952.81
2022-10-29T10:42:30.990Z,98949.88
2022-10-29T10:45:15.721Z,98941.50
2022-10-29T10:47:50.784Z,98942.81
2022-10-29T10:50:25.533Z,98940.13
2022-10-29T10:52:57.394Z,98930.13
2022-10-29T10:55:34.243Z,98927.00
2022-10-29T10:58:24.861Z,98914.34
2022-10-29T11:00:55.701Z,98921.53
2022-10-29T11:03:34.553Z,98917.97
2022-10-29T11:06:07.809Z,98919.22
2022-10-29T11:08:55.190Z,98913.00
2022-10-29T11:11:27.770Z,98911.53
2022-10-29T11:14:00.375Z,98909.47
2022-10-29T11:16:52.213Z,98913.81
2022-10-29T11:19:31.304Z,98900.69
2022-10-29T11:22:07.509Z,98898.63
2022-10-29T11:24:56.559Z,98890.81
2022-10-29T11:27:43.181Z,98893.16
2022-10-29T11:30:18.753Z,98889.03
2022-10-29T11:33:12.755Z,98893.41
2022-10-29T11:36:11.624Z,98891.31
2022-10-29T11:38:45.186Z,98888.03
2022-10-29T11:41:31.401Z,98882.38
2022-10-29T11:43:58.743Z,98877.41
2022-10-29T11:46:37.639Z,98879.94
2022-10-29T11:49:33.939Z,98882.13
2022-10-29T11:52:10.311Z,98875.13
2022-10-29T11:55:03.978Z,98877.59
2022-10-29T11:57:38.795Z,98869.00
2022-10-29T12:00:20.698Z,98865.63
2022-10-29T12:02:54.165Z,98853.22
2022-10-29T12:05:48.827Z,98847.47
2022-10-29T12:08:51.956Z,98844.75
2022-10-29T12:11:43.185Z,98850.41
2022-10-29T12:14:30.822Z,98843.22
2022-10-29T12:17:19.188Z,98844.44
2022-10-29T12:19:55.475Z,98847.69
2022-10-29T12:22:41.998Z,98835.63
2022-10-29T12:25:40.111Z,98837.84
2022-10-29T12:28:29.673Z,98833.31
2022-10-29T12:31:00.034Z,98828.56
2022-10-29T12:33:49.010Z,98822.59
2022-10-29T12:36:37.801Z,98820.44
2022-10-29T12:39:11.219Z,98819.31
2022-10-29T12:41:46.130Z,98809.72
2022-10-29T12:44:27.355Z,98818.03
2022-10-29T12:47:08.546Z,98814.19
2022-10-29T12:49:47.855Z,98803.97
2022-10-29T12:52:22.284Z,98796.81
2022-10-29T12:54:51.313Z,98792.63
2022-10-29T12:57:30.620Z,98797.47
2022-10-29T12:59:58.638Z,98798.97
2022-10-29T13:02:38.278Z,98786.34
2022-10-29T13:05:11.586Z,98790.28
2022-10-29T13:07:59.551Z,98784.41
2022-10-29T13:10:33.485Z,98794.31
2022-10-29T13:13:15.871Z,98783.22
2022-10-29T13:16:01.469Z,98770.88
2022-10-29T13:18:43.858Z,98770.06
2022-10-29T13:21:11.145Z,98770.81
2022-10-29T13:23:38.512Z,98758.31
2022-10-29T13:26:09.576Z,98760.69
2022-10-29T13:28:36.865Z,98760.41
2022-10-29T13:31:07.087Z,98753.50
2022-10-29T13:33:34.312Z,98750.44
2022-10-29T13:36:05.742Z,98748.56
2022-10-29T13:39:06.288Z,98743.44
2022-10-29T13:41:50.154Z,98747.59
2022-10-29T13:44:23.715Z,98742.69
2022-10-29T13:47:02.708Z,98744.00
2022-10-29T13:49:34.434Z,98736.34
2022-10-29T13:52:10.502Z,98734.53
2022-10-29T13:54:45.218Z,98733.72
2022-10-29T13:57:45.720Z,98726.41
2022-10-29T14:00:13.015Z,98729.78
2022-10-29T14:02:43.393Z,98723.53
2022-10-29T14:05:29.647Z,98719.38
2022-10-29T14:08:08.923Z,98723.28
2022-10-29T14:10:41.553Z,98725.34
2022-10-29T14:13:15.568Z,98727.84
2022-10-29T14:16:01.207Z,98725.78
2022-10-29T14:18:29.004Z,98728.50
2022-10-29T14:21:01.656Z,98726.81
2022-10-29T14:23:30.721Z,98724.31
2022-10-29T14:26:03.886Z,98723.31
2022-10-29T14:28:33.051Z,98721.22
2022-10-29T14:31:07.052Z,98720.78
2022-10-29T14:33:39.602Z,98721.00
2022-10-29T14:36:41.461Z,98720.16
2022-10-29T14:39:32.815Z,98717.25
2022-10-29T14:44:52.359Z,98716.03
2022-10-29T14:47:30.449Z,98710.81
2022-10-29T14:50:02.845Z,98712.06
2022-10-29T14:52:41.126Z,98716.19
2022-10-29T14:55:20.616Z,98709.94
2022-10-29T14:57:56.792Z,98722.16
2022-10-29T15:00:26.771Z,98705.47
2022-10-29T15:02:56.398Z,98712.66
2022-10-29T15:05:36.583Z,98714.88
2022-10-29T15:08:15.149Z,98709.91
2022-10-29T15:10:55.366Z,98718.00
2022-10-29T15:13:29.217Z,98713.94
2022-10-29T15:16:17.092Z,98715.72
2022-10-29T15:18:50.996Z,98714.25
2022-10-29T15:21:23.077Z,98712.84
2022-10-29T15:23:53.020Z,98708.66
2022-10-29T15:26:21.359Z,98716.53
2022-10-29T15:28:51.410Z,98709.47
2022-10-29T15:31:41.488Z,98710.13
2022-10-29T15:34:10.474Z,98708.00
2022-10-29T15:36:48.032Z,98698.28
2022-10-29T15:39:26.607Z,98700.81
2022-10-29T15:41:56.860Z,98701.97
2022-10-29T15:44:33.519Z,98701.69
2022-10-29T15:47:02.440Z,98696.69
2022-10-29T15:49:32.628Z,98694.66
2022-10-29T15:52:00.816Z,98698.78
2022-10-29T15:54:28.638Z,98696.50
2022-10-29T15:56:56.005Z,98695.41
2022-10-29T15:59:25.002Z,98703.78
2022-10-29T16:01:52.494Z,98713.53
2022-10-29T16:04:19.918Z,98704.75
2022-10-29T16:06:47.347Z,98706.09
2022-10-29T16:09:19.840Z,98709.69
2022-10-29T16:11:48.351Z,98709.72
2022-10-29T16:14:15.671Z,98710.56
2022-10-29T16:16:42.976Z,98707.38
2022-10-29T16:19:10.320Z,98703.69
2022-10-29T16:21:37.746Z,98695.63
2022-10-29T16:24:05.824Z,98701.13
2022-10-29T16:26:33.200Z,98703.44
2022-10-29T16:29:00.565Z,98699.25
2022-10-29T16:31:29.260Z,98691.03
2022-10-29T16:34:01.482Z,98692.78
2022-10-29T16:36:28.826Z,98700.22
2022-10-29T16:38:56.168Z,98702.47
2022-10-29T16:41:23.491Z,98707.78
2022-10-29T16:43:50.946Z,98697.38
2022-10-29T16:46:18.348Z,98696.72
2022-10-29T16:48:46.486Z,98695.50
2022-10-29T16:51:13.880Z,98692.94
2022-10-29T16:53:41.303Z,98689.88
2022-10-29T16:56:08.817Z,98681.28
2022-10-29T16:58:36.138Z,98689.97
2022-10-29T17:01:04.725Z,98684.06
2022-10-29T17:03:33.147Z,98687.19
2022-10-29T17:06:10.044Z,98687.38
2022-10-29T17:08:38.074Z,98694.88
2022-10-29T17:11:08.760Z,98681.88
2022-10-29T17:13:36.372Z,98686.16
2022-10-29T17:16:08.359Z,98691.13
2022-10-29T17:18:35.999Z,98687.94
2022-10-29T17:21:03.879Z,98689.75
2022-10-29T17:23:32.007Z,98691.00
2022-10-29T17:26:00.057Z,98695.56
2022-10-29T17:28:28.115Z,98690.28
2022-10-29T17:30:55.422Z,98694.34
2022-10-29T17:33:22.782Z,98692.44
2022-10-29T17:35:50.118Z,98692.34
2022-10-29T17:38:17.462Z,98691.06
2022-10-29T17:40:46.140Z,98696.72
2022-10-29T17:43:13.528Z,98697.06
2022-10-29T17:45:43.635Z,98702.03
2022-10-29T17:48:11.007Z,98702.09
2022-10-29T17:50:38.296Z,98699.22
2022-10-29T17:53:05.986Z,98699.66
2022-10-29T17:55:33.316Z,98694.41
2022-10-29T17:58:00.955Z,98706.41
2022-10-29T18:00:28.405Z,98709.38
2022-10-29T18:02:55.785Z,98705.00
2022-10-29T18:05:23.172Z,98708.25
2022-10-29T18:07:50.533Z,98710.00
2022-10-29T18:10:18.262Z,98705.56
2022-10-29T18:12:45.633Z,98702.44
2022-10-29T18:15:13.022Z,98698.56
2022-10-29T18:17:43.105Z,98707.28
2022-10-29T18:20:10.710Z,98703.19
2022-10-29T18:22:38.078Z,98698.66
2022-10-29T18:25:05.667Z,98702.69
2022-10-29T18:27:32.977Z,98701.28
2022-10-29T18:30:00.340Z,98698.97
2022-10-29T18:32:27.663Z,98697.66
2022-10-29T18:34:54.984Z,98694.16
2022-10-29T18:37:22.369Z,98701.25
2022-10-29T18:39:49.656Z,98695.50
2022-10-29T18:42:16.946Z,98697.91
2022-10-29T18:44:44.273Z,98704.63
2022-10-29T18:47:11.600Z,98692.44
2022-10-29T18:49:38.868Z,98702.25
2022-10-29T18:52:06.265Z,98696.69
2022-10-29T18:54:33.639Z,98700.19
2022-10-29T18:57:00.955Z,98694.47
2022-10-29T18:59:28.296Z,98701.91
2022-10-29T19:01:55.795Z,98704.44
2022-10-29T19:04:23.245Z,98699.81
2022-10-29T19:06:50.582Z,98701.22
2022-10-29T19:09:17.880Z,98700.09
2022-10-29T19:11:45.271Z,98703.72
2022-10-29T19:14:14.433Z,98699.38
2022-10-29T19:16:41.857Z,98708.47
2022-10-29T19:19:12.331Z,98704.25
2022-10-29T19:21:40.368Z,98710.41
2022-10-29T19:24:08.478Z,98704.94
2022-10-29T19:26:36.346Z,98703.69
2022-10-29T19:29:05.239Z,98707.44
2022-10-29T19:31:33.631Z,98705.09
2022-10-29T19:34:02.952Z,98705.25
2022-10-29T19:36:31.097Z,98710.44
2022-10-29T19:39:00.400Z,98712.25
2022-10-29T19:41:27.865Z,98716.03
2022-10-29T19:43:58.083Z,98717.44
2022-10-29T19:46:25.500Z,98709.81
2022-10-29T19:48:54.265Z,98710.53
2022-10-29T19:51:22.149Z,98711.63
2022-10-29T19:53:51.371Z,98719.25
2022-10-29T19:56:20.490Z,98724.69
2022-10-29T19:58:47.945Z,98722.97
2022-10-29T20:01:17.054Z,98721.44
2022-10-29T20:03:45.003Z,98725.66
2022-10-29T20:06:12.958Z,98724.13
2022-10-29T20:08:42.802Z,98727.34
2022-10-29T20:11:10.139Z,98728.63
2022-10-29T20:13:39.505Z,98724.63
2022-10-29T20:16:24.927Z,98724.91
2022-10-29T20:18:52.258Z,98730.22
2022-10-29T20:21:19.681Z,98728.53
2022-10-29T20:23:47.113Z,98724.03
2022-10-29T20:26:14.620Z,98729.91
2022-10-29T20:28:42.073Z,98725.47
2022-10-29T20:31:19.218Z,98723.69
2022-10-29T20:33:50.850Z,98725.06
2022-10-29T20:36:18.265Z,98728.88
2022-10-29T20:38:49.550Z,98721.13
2022-10-29T20:41:17.433Z,98722.38
2022-10-29T20:43:45.525Z,98717.63
2022-10-29T20:46:12.848Z,98718.25
2022-10-29T20:48:40.179Z,98716.50
2022-10-29T20:51:07.584Z,98713.03
2022-10-29T20:53:34.902Z,98722.13
2022-10-29T20:56:02.203Z,98722.53
2022-10-29T20:58:29.618Z,98731.03
2022-10-29T21:01:07.755Z,98733.19
2022-10-29T21:03:35.550Z,98740.53
2022-10-29T21:06:11.274Z,98735.88
2022-10-29T21:08:43.465Z,98727.59
2022-10-29T21:11:11.951Z,98741.91
2022-10-29T21:13:39.282Z,98748.56
2022-10-29T21:16:18.718Z,98748.00
2022-10-29T21:18:47.829Z,98746.19
2022-10-29T21:21:15.611Z,98746.34
2022-10-29T21:23:43.104Z,98743.00
2022-10-29T21:26:13.702Z,98736.25
2022-10-29T21:28:41.302Z,98743.53
2022-10-29T21:31:08.881Z,98742.16
2022-10-29T21:33:36.268Z,98743.53
2022-10-29T21:36:03.787Z,98741.72
2022-10-29T21:38:32.702Z,98742.09
2022-10-29T21:41:03.442Z,98738.00
2022-10-29T21:43:31.080Z,98739.94
2022-10-29T21:45:58.633Z,98751.63
2022-10-29T21:48:27.167Z,98744.56
2022-10-29T21:51:10.012Z,98749.69
2022-10-29T21:53:37.400Z,98748.75
2022-10-29T21:56:06.560Z,98756.00
2022-10-29T21:58:33.981Z,98750.84
2022-10-29T22:01:06.891Z,98754.91
2022-10-29T22:03:35.575Z,98753.97
2022-10-29T22:06:21.792Z,98749.72
2022-10-29T22:08:53.925Z,98749.69
2022-10-29T22:11:21.645Z,98747.88
2022-10-29T22:13:48.960Z,98747.25
2022-10-29T22:16:17.804Z,98745.66
2022-10-29T22:18:46.207Z,98736.91
2022-10-29T22:21:21.744Z,98734.69
2022-10-29T22:23:54.602Z,98737.19
2022-10-29T22:26:24.727Z,98740.94
2022-10-29T22:28:52.203Z,98747.63
2022-10-29T22:31:21.058Z,98742.72
2022-10-29T22:33:48.875Z,98751.16
2022-10-29T22:36:17.454Z,98755.28
2022-10-29T22:38:45.286Z,98752.28
2022-10-29T22:41:17.174Z,98740.81
2022-10-29T22:43:45.064Z,98746.00
2022-10-29T22:46:16.595Z,98751.78
2022-10-29T22:48:44.259Z,98751.44
2022-10-29T22:51:15.358Z,98750.56
2022-10-29T22:53:43.009Z,98758.53
2022-10-29T22:56:18.342Z,98747.47
2022-10-29T22:58:46.180Z,98751.06
2022-10-29T23:01:19.115Z,98751.75
2022-10-29T23:03:46.901Z,98740.91
2022-10-29T23:06:19.360Z,98751.75
2022-10-29T23:08:47.492Z,98746.31
2022-10-29T23:11:19.407Z,98744.06
2022-10-29T23:13:47.924Z,98744.19
2022-10-29T23:16:15.769Z,98743.69
2022-10-29T23:18:43.123Z,98746.94
2022-10-29T23:21:10.704Z,98749.34
2022-10-29T23:23:38.030Z,98750.44
2022-10-29T23:26:05.839Z,98759.47
2022-10-29T23:28:34.926Z,98749.22
2022-10-29T23:31:03.715Z,98757.31
2022-10-29T23:33:32.226Z,98755.53
2022-10-29T23:36:03.818Z,98746.59
2022-10-29T23:38:31.997Z,98753.34
2022-10-29T23:40:59.371Z,98746.72
2022-10-29T23:43:27.549Z,98742.41
2022-10-29T23:45:54.925Z,98749.03
2022-10-29T23:48:22.558Z,98736.72
2022-10-29T23:50:50.113Z,98736.81
2022-10-29T23:53:17.463Z,98736.97
2022-10-29T23:55:45.545Z,98741.03
2022-10-29T23:58:13.554Z,98739.31
